Time;durP1;ratioP1;P1;durP2;ratioP2;P2;SDS_P1;SDS_P2;PMS_P1;PMS_P2;Temp;Humidity;BMP_temperature;BMP_pressure;BME280_temperature;BME280_humidity;BME280_pressure;Samples;Min_cycle;Max_cycle;Signal;HPM_P1;HPM_P2
2023/04/29 00:01:30;;;;;;;6.40;5.80;;;15.40;60.10;;;;;;4942626;28;20123;-79
2023/04/29 00:03:57;;;;;;;5.53;5.03;;;15.40;60.20;;;;;;4947237;28;20034;-78
2023/04/29 00:06:22;;;;;;;8.02;5.57;;;15.40;60.30;;;;;;4946010;28;20065;-79
2023/04/29 00:08:48;;;;;;;8.07;6.63;;;15.30;60.10;;;;;;4941841;28;20039;-79
2023/04/29 00:11:15;;;;;;;8.35;6.63;;;15.30;60.20;;;;;;4939145;28;20847;-78
2023/04/29 00:13:40;;;;;;;7.18;6.47;;;15.30;60.30;;;;;;4937919;28;20035;-78
2023/04/29 00:16:07;;;;;;;7.97;6.63;;;15.30;60.40;;;;;;4945139;28;20114;-78
2023/04/29 00:18:33;;;;;;;8.52;6.75;;;15.30;60.40;;;;;;4933146;28;20122;-78
2023/04/29 00:20:59;;;;;;;7.63;6.88;;;15.30;60.50;;;;;;4932898;28;20039;-78
2023/04/29 00:23:25;;;;;;;7.88;6.55;;;15.30;60.50;;;;;;4938642;28;20495;-78
2023/04/29 00:25:52;;;;;;;8.98;7.55;;;15.30;60.50;;;;;;4946245;28;20098;-78
2023/04/29 00:28:18;;;;;;;10.68;8.10;;;15.30;60.60;;;;;;4943025;28;20031;-77
2023/04/29 00:30:45;;;;;;;11.13;7.88;;;15.30;60.70;;;;;;4950684;28;20047;-77
2023/04/29 00:33:11;;;;;;;11.38;7.75;;;15.30;60.70;;;;;;4941416;28;20249;-77
2023/04/29 00:35:37;;;;;;;8.25;7.43;;;15.30;60.70;;;;;;4946026;28;20434;-78
2023/04/29 00:38:04;;;;;;;8.18;7.20;;;15.30;60.80;;;;;;4931569;28;20460;-77
2023/04/29 00:40:29;;;;;;;11.55;8.32;;;15.20;60.60;;;;;;4933406;28;20040;-77
2023/04/29 00:42:56;;;;;;;9.77;8.65;;;15.20;60.70;;;;;;4936567;28;20147;-77
2023/04/29 00:45:22;;;;;;;9.27;8.27;;;15.20;60.80;;;;;;4938425;28;20047;-76
2023/04/29 00:47:48;;;;;;;11.07;8.32;;;15.20;60.80;;;;;;4941546;28;20059;-76
2023/04/29 00:50:14;;;;;;;10.10;9.05;;;15.20;60.80;;;;;;4940037;28;20058;-77
2023/04/29 00:52:41;;;;;;;10.77;8.48;;;15.20;60.80;;;;;;4939083;28;20546;-77
2023/04/29 00:55:11;;;;;;;9.95;8.38;;;15.10;60.80;;;;;;4941358;28;20035;-77
2023/04/29 00:57:38;;;;;;;9.82;8.68;;;15.10;60.80;;;;;;4925347;29;20061;-77
2023/04/29 01:00:04;;;;;;;10.93;8.95;;;15.10;60.90;;;;;;4947507;28;20573;-77
2023/04/29 01:02:30;;;;;;;11.07;9.90;;;15.10;60.90;;;;;;4941334;28;20090;-77
2023/04/29 01:04:56;;;;;;;10.73;9.63;;;15.10;61.00;;;;;;4939962;28;20448;-76
2023/04/29 01:07:30;;;;;;;10.13;8.80;;;15.10;61.10;;;;;;4944991;28;20058;-77
2023/04/29 01:10:09;;;;;;;10.35;9.25;;;15.10;61.20;;;;;;4941592;28;20059;-77
2023/04/29 01:12:35;;;;;;;10.73;8.65;;;15.10;61.30;;;;;;4940697;29;20034;-77
2023/04/29 01:15:08;;;;;;;11.27;8.75;;;15.10;61.20;;;;;;4943043;28;20310;-76
2023/04/29 01:17:47;;;;;;;12.82;9.88;;;15.00;61.10;;;;;;4939235;28;20488;-76
2023/04/29 01:20:15;;;;;;;11.00;9.88;;;15.00;61.20;;;;;;4937754;28;20027;-76
2023/04/29 01:22:41;;;;;;;11.13;9.80;;;15.00;61.10;;;;;;4942454;28;20097;-76
2023/04/29 01:25:08;;;;;;;11.85;9.73;;;15.10;61.40;;;;;;4937743;28;20133;-78
2023/04/29 01:28:02;;;;;;;10.90;9.27;;;15.00;61.30;;;;;;4939857;28;20123;-77
2023/04/29 01:30:51;;;;;;;13.23;9.73;;;15.00;61.40;;;;;;4921537;29;20089;-80
2023/04/29 01:33:50;;;;;;;12.77;10.52;;;15.00;61.40;;;;;;4943439;28;20031;-80
2023/04/29 01:36:21;;;;;;;13.55;10.75;;;15.00;61.50;;;;;;4940750;28;20393;-79
2023/04/29 01:38:58;;;;;;;11.95;9.88;;;15.00;61.30;;;;;;4946709;28;20035;-80
2023/04/29 01:42:14;;;;;;;14.93;11.82;;;14.90;61.20;;;;;;4946693;28;20062;-79
2023/04/29 01:44:42;;;;;;;13.95;11.05;;;14.90;61.40;;;;;;4940193;28;20100;-80
2023/04/29 01:47:13;;;;;;;13.88;11.02;;;14.90;61.20;;;;;;4928410;28;20048;-80
2023/04/29 01:49:45;;;;;;;13.63;10.88;;;14.90;61.40;;;;;;4940088;29;20050;-79
2023/04/29 01:52:12;;;;;;;12.15;10.90;;;14.90;61.40;;;;;;4943788;29;20260;-80
2023/04/29 01:54:42;;;;;;;13.25;10.98;;;14.90;61.50;;;;;;4945785;29;20462;-80
2023/04/29 01:57:08;;;;;;;14.73;12.38;;;14.90;61.50;;;;;;4930732;28;20039;-80
2023/04/29 01:59:45;;;;;;;16.35;12.80;;;14.80;61.40;;;;;;4945904;28;20035;-80
2023/04/29 02:02:30;;;;;;;15.25;12.57;;;14.80;61.50;;;;;;4939825;28;20039;-80
2023/04/29 02:05:05;;;;;;;15.57;12.45;;;14.80;61.50;;;;;;4945842;28;20122;-80
2023/04/29 02:07:31;;;;;;;14.38;12.30;;;14.80;61.50;;;;;;4945360;29;20106;-81
2023/04/29 02:09:57;;;;;;;16.30;12.65;;;14.80;61.60;;;;;;4945952;29;20910;-80
2023/04/29 02:12:23;;;;;;;15.70;13.18;;;14.80;61.70;;;;;;4943683;29;20027;-79
2023/04/29 02:14:52;;;;;;;15.70;12.93;;;14.80;61.70;;;;;;4945319;29;20046;-79
2023/04/29 02:17:18;;;;;;;17.83;13.27;;;14.80;61.80;;;;;;4945707;28;20055;-79
2023/04/29 02:19:44;;;;;;;15.57;12.82;;;14.80;61.80;;;;;;4939646;29;20034;-78
2023/04/29 02:22:11;;;;;;;15.13;12.43;;;14.80;61.80;;;;;;4944877;29;20039;-83
2023/04/29 02:24:40;;;;;;;13.90;11.88;;;14.70;61.70;;;;;;4936582;28;20030;-80
2023/04/29 02:27:06;;;;;;;15.80;12.60;;;14.80;61.90;;;;;;4945108;29;20090;-78
2023/04/29 02:29:33;;;;;;;16.65;12.85;;;14.80;62.00;;;;;;4945116;28;20039;-77
2023/04/29 02:31:59;;;;;;;14.70;12.90;;;14.70;61.80;;;;;;4946873;28;20031;-77
2023/04/29 02:34:25;;;;;;;17.60;13.43;;;14.70;61.80;;;;;;4942860;28;20830;-75
2023/04/29 02:36:52;;;;;;;14.73;13.00;;;14.70;61.90;;;;;;4945081;29;20038;-80
2023/04/29 02:39:20;;;;;;;14.90;12.70;;;14.70;61.90;;;;;;4942463;29;20106;-82
2023/04/29 02:41:46;;;;;;;15.50;12.65;;;14.70;61.90;;;;;;4941430;28;20067;-80
2023/04/29 02:44:13;;;;;;;16.67;13.65;;;14.70;62.00;;;;;;4957573;28;20031;-81
2023/04/29 02:46:44;;;;;;;17.55;13.63;;;14.70;62.00;;;;;;4945423;28;20097;-81
2023/04/29 02:49:11;;;;;;;16.67;13.65;;;14.70;62.00;;;;;;4944880;29;20495;-80
2023/04/29 02:51:37;;;;;;;15.60;12.55;;;14.70;62.00;;;;;;4945559;28;20046;-81
2023/04/29 02:54:04;;;;;;;16.95;13.75;;;14.60;62.50;;;;;;4953474;28;20031;-80
2023/04/29 02:56:31;;;;;;;16.83;13.05;;;14.60;61.90;;;;;;4945017;29;20043;-81
2023/04/29 02:58:57;;;;;;;16.10;12.88;;;14.60;62.00;;;;;;4930529;28;20027;-81
2023/04/29 03:01:23;;;;;;;16.38;13.13;;;14.60;62.00;;;;;;4948096;28;20198;-81
2023/04/29 03:03:49;;;;;;;16.63;13.65;;;14.60;62.10;;;;;;4946966;28;20168;-81
2023/04/29 03:06:16;;;;;;;15.32;12.57;;;14.60;62.10;;;;;;4945941;28;20070;-80
2023/04/29 03:08:42;;;;;;;16.45;13.77;;;14.60;62.10;;;;;;4947072;28;20540;-80
2023/04/29 03:11:08;;;;;;;17.55;13.43;;;14.60;62.20;;;;;;4946895;28;20043;-80
2023/04/29 03:13:34;;;;;;;18.13;12.90;;;14.60;62.20;;;;;;4951906;28;20032;-80
2023/04/29 03:16:00;;;;;;;17.25;13.60;;;14.60;62.20;;;;;;4948852;28;20035;-80
2023/04/29 03:18:27;;;;;;;18.45;12.43;;;14.50;62.10;;;;;;4949488;28;20083;-81
2023/04/29 03:20:53;;;;;;;18.35;13.45;;;14.50;62.10;;;;;;4945827;28;20070;-80
2023/04/29 03:23:18;;;;;;;19.50;14.23;;;14.50;62.20;;;;;;4948403;28;20441;-80
2023/04/29 03:25:44;;;;;;;20.63;14.65;;;14.50;62.20;;;;;;4949532;28;20050;-80
2023/04/29 03:28:10;;;;;;;21.20;15.77;;;14.60;62.40;;;;;;4938138;28;20438;-79
2023/04/29 03:30:37;;;;;;;19.65;14.07;;;14.50;62.30;;;;;;4948385;28;20049;-81
2023/04/29 03:33:03;;;;;;;19.08;13.38;;;14.50;62.30;;;;;;4951127;28;20170;-81
2023/04/29 03:35:30;;;;;;;22.02;15.77;;;14.50;62.40;;;;;;4949114;28;20056;-82
2023/04/29 03:38:16;;;;;;;18.58;13.98;;;14.50;62.40;;;;;;4949799;28;20193;-80
2023/04/29 03:40:44;;;;;;;23.10;15.38;;;14.40;62.30;;;;;;4949103;28;20608;-81
2023/04/29 03:43:11;;;;;;;19.58;13.57;;;14.40;62.30;;;;;;4937932;29;20094;-81
2023/04/29 03:45:37;;;;;;;19.70;14.20;;;14.40;62.40;;;;;;4948670;28;20423;-79
2023/04/29 03:48:05;;;;;;;22.00;15.55;;;14.40;62.50;;;;;;4947573;28;20143;-78
2023/04/29 03:50:31;;;;;;;21.08;14.98;;;14.40;62.50;;;;;;4948058;29;20122;-78
2023/04/29 03:52:57;;;;;;;19.95;14.07;;;14.40;62.50;;;;;;4947969;28;20114;-80
2023/04/29 03:55:23;;;;;;;19.52;14.18;;;14.40;62.50;;;;;;4948688;29;20050;-82
2023/04/29 03:57:49;;;;;;;20.88;14.55;;;14.40;62.60;;;;;;4947618;28;20656;-79
2023/04/29 04:00:17;;;;;;;19.83;14.48;;;14.40;62.60;;;;;;4952150;28;20050;-78
2023/04/29 04:02:45;;;;;;;18.77;13.90;;;14.40;62.70;;;;;;4973742;28;20108;-78
2023/04/29 04:05:11;;;;;;;19.40;13.25;;;14.40;62.70;;;;;;4972309;28;20035;-78
2023/04/29 04:07:40;;;;;;;17.88;13.18;;;14.40;62.70;;;;;;4983381;28;20070;-79
2023/04/29 04:10:27;;;;;;;17.80;14.05;;;14.30;62.50;;;;;;4973633;28;20026;-80
2023/04/29 04:12:53;;;;;;;17.25;12.40;;;14.30;62.50;;;;;;4974209;28;20087;-78
2023/04/29 04:15:21;;;;;;;16.70;11.98;;;14.30;62.60;;;;;;4947667;28;20055;-78
2023/04/29 04:17:47;;;;;;;18.00;12.68;;;14.30;62.60;;;;;;4948805;28;20489;-78
2023/04/29 04:20:14;;;;;;;15.27;11.40;;;14.30;62.60;;;;;;4945725;28;20034;-78
2023/04/29 04:22:40;;;;;;;15.48;11.68;;;14.30;62.70;;;;;;4948593;29;20211;-79
2023/04/29 04:25:15;;;;;;;15.00;11.85;;;14.30;62.70;;;;;;4944823;28;20034;-79
2023/04/29 04:27:41;;;;;;;14.05;11.13;;;14.20;62.50;;;;;;4937573;28;20035;-79
2023/04/29 04:30:12;;;;;;;13.13;10.00;;;14.20;62.60;;;;;;4946820;28;20546;-81
2023/04/29 04:32:39;;;;;;;14.88;10.23;;;14.20;62.60;;;;;;4948293;28;20035;-81
2023/04/29 04:35:06;;;;;;;14.05;9.50;;;14.20;62.70;;;;;;4947502;28;20447;-81
2023/04/29 04:37:32;;;;;;;12.68;10.68;;;14.10;62.50;;;;;;4946772;28;20031;-80
2023/04/29 04:39:59;;;;;;;13.75;10.13;;;14.10;63.10;;;;;;4950939;28;20030;-82
2023/04/29 04:42:25;;;;;;;11.95;9.20;;;14.00;62.40;;;;;;4936872;29;20464;-79
2023/04/29 04:44:56;;;;;;;11.32;9.48;;;14.00;62.50;;;;;;4945746;28;20050;-80
2023/04/29 04:47:45;;;;;;;12.75;9.68;;;14.00;62.50;;;;;;4947183;28;20047;-80
2023/04/29 04:50:21;;;;;;;11.52;9.57;;;14.00;62.50;;;;;;4943628;29;20479;-78
2023/04/29 04:52:48;;;;;;;12.35;9.77;;;14.00;62.50;;;;;;4943108;28;20039;-77
2023/04/29 04:55:28;;;;;;;11.25;8.30;;;13.90;62.40;;;;;;4942492;28;20062;-77
2023/04/29 04:57:54;;;;;;;11.63;9.63;;;13.90;62.40;;;;;;4947340;28;20061;-77
2023/04/29 05:00:20;;;;;;;10.05;7.57;;;13.90;62.50;;;;;;4944717;28;20031;-77
2023/04/29 05:02:46;;;;;;;10.13;8.65;;;13.90;62.60;;;;;;4941720;28;20062;-77
2023/04/29 05:05:12;;;;;;;9.93;8.20;;;13.90;62.60;;;;;;4921149;29;20043;-79
2023/04/29 05:07:40;;;;;;;8.77;7.85;;;13.90;62.70;;;;;;4924360;28;20555;-77
2023/04/29 05:10:08;;;;;;;9.02;8.13;;;13.80;62.50;;;;;;4941579;29;20039;-81
2023/04/29 05:12:40;;;;;;;9.52;7.85;;;13.90;62.60;;;;;;4935077;29;20079;-79
2023/04/29 05:15:07;;;;;;;9.18;7.68;;;13.80;62.50;;;;;;4939189;28;20043;-78
2023/04/29 05:17:35;;;;;;;10.07;8.40;;;13.80;62.50;;;;;;4936506;28;20050;-79
2023/04/29 05:20:01;;;;;;;8.73;7.75;;;13.80;62.50;;;;;;4920296;28;20066;-79
2023/04/29 05:22:28;;;;;;;9.60;8.13;;;13.80;62.50;;;;;;4953545;28;20682;-78
2023/04/29 05:24:59;;;;;;;9.32;8.38;;;13.80;62.50;;;;;;4940839;28;20043;-78
2023/04/29 05:27:25;;;;;;;9.18;8.27;;;13.80;62.50;;;;;;4935483;28;20118;-78
2023/04/29 05:29:51;;;;;;;9.07;7.88;;;13.80;62.50;;;;;;4940782;28;20046;-78
2023/04/29 05:32:17;;;;;;;9.05;8.10;;;13.80;62.50;;;;;;4938390;28;20085;-81
2023/04/29 05:34:43;;;;;;;8.95;7.82;;;13.80;62.50;;;;;;4935958;28;20027;-79
2023/04/29 05:37:09;;;;;;;7.47;6.70;;;13.80;62.50;;;;;;4932681;28;20199;-78
2023/04/29 05:39:47;;;;;;;8.15;7.32;;;13.80;62.40;;;;;;4937307;28;20122;-82
2023/04/29 05:42:15;;;;;;;8.13;7.03;;;13.90;62.60;;;;;;4927792;28;20038;-81
2023/04/29 05:44:45;;;;;;;8.82;7.93;;;13.90;62.60;;;;;;4934067;28;20100;-86
2023/04/29 05:47:12;;;;;;;7.90;7.10;;;13.90;62.50;;;;;;4932191;28;20055;-81
2023/04/29 05:49:38;;;;;;;6.75;6.05;;;13.90;62.50;;;;;;4934542;28;20031;-82
2023/04/29 05:52:05;;;;;;;8.38;7.40;;;13.90;62.50;;;;;;4934495;28;20407;-85
2023/04/29 05:54:34;;;;;;;7.80;7.00;;;13.90;62.50;;;;;;4936064;28;20089;-84
2023/04/29 05:57:04;;;;;;;8.52;7.63;;;13.90;62.50;;;;;;4933692;28;20046;-83
2023/04/29 05:59:30;;;;;;;8.20;7.18;;;13.90;62.50;;;;;;4935162;28;20031;-84
2023/04/29 06:01:59;;;;;;;7.90;7.15;;;13.90;62.50;;;;;;4931781;28;20031;-80
2023/04/29 06:04:26;;;;;;;7.38;6.68;;;13.90;62.50;;;;;;4935719;28;20039;-80
2023/04/29 06:07:11;;;;;;;7.60;6.85;;;13.90;62.50;;;;;;4935916;28;20071;-82
2023/04/29 06:10:04;;;;;;;7.53;6.82;;;13.90;62.40;;;;;;4935566;28;20090;-82
2023/04/29 06:12:31;;;;;;;7.35;6.65;;;13.90;62.40;;;;;;4947451;28;20110;-83
2023/04/29 06:14:57;;;;;;;7.75;6.70;;;13.90;62.40;;;;;;4937146;28;20437;-81
2023/04/29 06:17:23;;;;;;;7.45;6.57;;;13.90;62.30;;;;;;4934629;28;20455;-81
2023/04/29 06:19:50;;;;;;;6.97;6.32;;;14.00;62.50;;;;;;4932410;28;20130;-79
2023/04/29 06:22:16;;;;;;;7.28;6.55;;;14.00;63.00;;;;;;4935338;28;20031;-83
2023/04/29 06:24:50;;;;;;;6.47;5.93;;;14.00;62.50;;;;;;4942495;28;20487;-81
2023/04/29 06:27:25;;;;;;;7.00;6.30;;;14.10;63.00;;;;;;4931817;28;20027;-80
2023/04/29 06:29:51;;;;;;;8.02;5.70;;;14.10;63.50;;;;;;4938257;28;20030;-82
2023/04/29 06:32:17;;;;;;;6.85;6.15;;;14.20;63.10;;;;;;4922677;29;20483;-82
2023/04/29 06:34:45;;;;;;;7.22;6.20;;;14.30;63.20;;;;;;4922063;29;20051;-84
2023/04/29 06:37:27;;;;;;;6.88;6.00;;;14.30;63.10;;;;;;4938973;28;20046;-77
2023/04/29 06:40:12;;;;;;;7.03;6.00;;;14.30;63.00;;;;;;4939270;28;20058;-86
2023/04/29 06:42:56;;;;;;;7.72;5.45;;;14.40;63.20;;;;;;4939841;28;20368;-79
2023/04/29 06:45:48;;;;;;;6.15;5.63;;;14.50;63.60;;;;;;4933716;28;20039;-80
2023/04/29 06:48:26;;;;;;;7.15;5.15;;;14.70;64.10;;;;;;4932398;28;20046;-79
2023/04/29 06:50:53;;;;;;;6.13;4.93;;;14.90;64.40;;;;;;4943914;28;20176;-80
2023/04/29 06:53:20;;;;;;;5.60;5.07;;;15.00;64.40;;;;;;4938254;28;20150;-79
2023/04/29 06:55:47;;;;;;;5.18;4.72;;;15.20;64.70;;;;;;4939998;28;20111;-78
2023/04/29 06:58:14;;;;;;;5.50;5.00;;;15.30;64.80;;;;;;4936255;28;20039;-79
2023/04/29 07:00:43;;;;;;;8.23;5.18;;;15.40;64.90;;;;;;4939115;28;20363;-78
2023/04/29 07:03:10;;;;;;;7.20;5.78;;;15.50;64.90;;;;;;4931888;28;20036;-78
2023/04/29 07:05:39;;;;;;;5.50;4.93;;;15.60;65.00;;;;;;4939315;28;20051;-77
2023/04/29 07:08:05;;;;;;;7.28;5.05;;;15.70;65.10;;;;;;4939444;28;20023;-78
2023/04/29 07:10:31;;;;;;;6.70;5.25;;;15.80;65.20;;;;;;4940235;28;20058;-78
2023/04/29 07:12:59;;;;;;;6.18;5.25;;;15.90;65.30;;;;;;4939223;28;20023;-81
2023/04/29 07:15:26;;;;;;;7.45;5.90;;;16.00;65.30;;;;;;4938404;28;20436;-80
2023/04/29 07:17:52;;;;;;;7.13;6.05;;;16.10;65.40;;;;;;4937643;28;20126;-78
2023/04/29 07:20:19;;;;;;;7.13;5.53;;;16.20;65.40;;;;;;4922752;28;20324;-79
2023/04/29 07:22:45;;;;;;;6.25;5.30;;;16.20;65.20;;;;;;4934698;28;20044;-79
2023/04/29 07:25:13;;;;;;;8.10;6.45;;;16.30;65.20;;;;;;4937511;28;20086;-78
2023/04/29 07:27:39;;;;;;;6.78;6.18;;;16.40;65.30;;;;;;4931008;28;20035;-77
2023/04/29 07:30:05;;;;;;;7.57;5.47;;;16.40;65.10;;;;;;4932183;28;20039;-77
2023/04/29 07:32:32;;;;;;;7.88;6.22;;;16.40;65.00;;;;;;4953050;28;20035;-77
2023/04/29 07:35:01;;;;;;;7.75;6.32;;;16.50;65.10;;;;;;4933724;28;20183;-79
2023/04/29 07:37:27;;;;;;;7.25;6.13;;;16.50;65.00;;;;;;4938839;28;20055;-79
2023/04/29 07:39:53;;;;;;;8.15;6.68;;;16.50;65.00;;;;;;4934807;28;20512;-79
2023/04/29 07:42:20;;;;;;;8.55;6.95;;;16.60;65.00;;;;;;4934502;28;20226;-78
2023/04/29 07:44:46;;;;;;;7.20;6.18;;;16.60;64.90;;;;;;4936783;28;20081;-79
2023/04/29 07:47:13;;;;;;;9.80;7.05;;;16.70;65.00;;;;;;4939391;28;20051;-78
2023/04/29 07:49:40;;;;;;;10.80;6.75;;;16.70;65.00;;;;;;4937394;28;20035;-83
2023/04/29 07:52:08;;;;;;;9.10;7.50;;;16.80;65.00;;;;;;4936367;28;20027;-78
2023/04/29 07:54:35;;;;;;;11.02;8.57;;;16.90;65.00;;;;;;4938296;28;20042;-79
2023/04/29 07:57:03;;;;;;;10.18;8.70;;;17.00;65.00;;;;;;4937159;28;20545;-83
2023/04/29 07:59:32;;;;;;;13.68;11.15;;;17.00;64.80;;;;;;4924117;29;20442;-83
2023/04/29 08:01:58;;;;;;;12.82;10.02;;;17.10;64.80;;;;;;4935532;28;20154;-82
2023/04/29 08:04:24;;;;;;;12.88;9.85;;;17.10;64.60;;;;;;4937462;28;20114;-81
2023/04/29 08:06:58;;;;;;;14.15;11.00;;;17.20;64.60;;;;;;4934643;28;20219;-82
2023/04/29 08:09:24;;;;;;;15.00;10.80;;;17.20;64.50;;;;;;4932164;28;20039;-82
2023/04/29 08:11:50;;;;;;;13.70;10.77;;;17.30;64.50;;;;;;4931939;28;20041;-79
2023/04/29 08:14:16;;;;;;;15.55;12.02;;;17.30;64.30;;;;;;4938260;28;20511;-82
2023/04/29 08:16:42;;;;;;;13.82;10.63;;;17.30;64.20;;;;;;4934553;28;20114;-84
2023/04/29 08:19:08;;;;;;;15.07;10.55;;;17.40;64.20;;;;;;4932632;28;20038;-77
2023/04/29 08:21:34;;;;;;;13.07;10.55;;;17.50;64.20;;;;;;4918108;29;20039;-79
2023/04/29 08:24:00;;;;;;;15.15;11.65;;;17.60;64.10;;;;;;4939152;28;20090;-79
2023/04/29 08:26:26;;;;;;;13.75;10.75;;;17.80;64.30;;;;;;4936560;28;20050;-82
2023/04/29 08:28:52;;;;;;;12.98;10.52;;;17.90;64.30;;;;;;4932141;28;20031;-80
2023/04/29 08:31:19;;;;;;;17.67;12.48;;;18.00;64.20;;;;;;4941016;28;21148;-80
2023/04/29 08:33:45;;;;;;;15.63;11.07;;;18.10;64.00;;;;;;4937217;28;20602;-78
2023/04/29 08:36:11;;;;;;;14.18;12.18;;;18.30;64.00;;;;;;4931960;28;20074;-80
2023/04/29 08:38:37;;;;;;;14.55;11.45;;;18.40;63.70;;;;;;4942540;28;20034;-80
2023/04/29 08:41:06;;;;;;;13.43;11.05;;;18.50;63.50;;;;;;4936020;28;20036;-80
2023/04/29 08:43:39;;;;;;;15.70;11.43;;;18.70;63.40;;;;;;4934462;28;20093;-80
2023/04/29 08:46:06;;;;;;;15.00;12.50;;;18.70;63.10;;;;;;4940590;28;20083;-79
2023/04/29 08:48:33;;;;;;;13.57;11.90;;;18.80;63.00;;;;;;4949285;28;20059;-79
2023/04/29 08:51:01;;;;;;;13.00;11.27;;;18.90;63.00;;;;;;4959555;28;20286;-80
2023/04/29 08:53:27;;;;;;;13.73;11.77;;;18.90;62.80;;;;;;4961736;28;20035;-80
2023/04/29 08:55:54;;;;;;;16.08;12.52;;;18.90;62.70;;;;;;4964732;28;20058;-80
2023/04/29 08:58:20;;;;;;;13.05;11.50;;;18.90;62.50;;;;;;4959015;28;20315;-79
2023/04/29 09:00:48;;;;;;;13.50;11.48;;;19.00;62.50;;;;;;4956149;28;20031;-80
2023/04/29 09:03:23;;;;;;;13.25;11.10;;;19.10;62.50;;;;;;4949289;28;20493;-82
2023/04/29 09:05:57;;;;;;;12.45;11.15;;;19.10;62.20;;;;;;4933383;28;20523;-80
2023/04/29 09:08:24;;;;;;;13.57;11.27;;;19.10;62.00;;;;;;4935524;28;20427;-81
2023/04/29 09:10:51;;;;;;;11.88;10.05;;;19.10;61.90;;;;;;4922232;29;20039;-79
2023/04/29 09:13:30;;;;;;;13.77;12.13;;;19.20;62.00;;;;;;4931845;28;20410;-81
2023/04/29 09:15:57;;;;;;;12.90;11.35;;;19.20;61.80;;;;;;4931990;28;20475;-80
2023/04/29 09:18:48;;;;;;;12.57;11.45;;;19.40;61.80;;;;;;4932250;28;20054;-78
2023/04/29 09:21:19;;;;;;;13.68;12.27;;;19.50;61.50;;;;;;4936283;28;20129;-79
2023/04/29 09:23:46;;;;;;;14.35;12.20;;;19.70;61.60;;;;;;4932867;28;20028;-79
2023/04/29 09:26:13;;;;;;;15.15;13.40;;;19.70;61.20;;;;;;4932272;28;20039;-80
2023/04/29 09:28:42;;;;;;;15.05;11.80;;;19.80;61.20;;;;;;4935220;28;20032;-81
2023/04/29 09:31:08;;;;;;;13.82;12.43;;;19.90;61.20;;;;;;4934779;28;20042;-82
2023/04/29 09:33:50;;;;;;;12.15;10.85;;;19.90;61.00;;;;;;4935857;28;20031;-82
2023/04/29 09:36:50;;;;;;;13.40;12.00;;;20.00;60.90;;;;;;4929853;28;20290;-80
2023/04/29 09:39:18;;;;;;;13.77;12.32;;;20.10;60.80;;;;;;4931141;28;20338;-80
2023/04/29 09:41:53;;;;;;;14.40;12.80;;;20.20;60.90;;;;;;4936343;28;20230;-80
2023/04/29 09:44:24;;;;;;;14.68;13.02;;;20.20;60.80;;;;;;4935014;28;20062;-81
2023/04/29 09:46:56;;;;;;;15.90;14.25;;;20.30;60.70;;;;;;4932742;28;20045;-80
2023/04/29 09:49:23;;;;;;;;;;;20.40;60.60;;;;;;4935645;28;20557;-81
2023/04/29 09:51:57;;;;;;;14.65;12.63;;;20.60;60.70;;;;;;4935825;28;19998;-83
2023/04/29 09:54:24;;;;;;;16.05;14.30;;;20.60;60.50;;;;;;4921945;28;20705;-81
2023/04/29 09:56:52;;;;;;;16.23;14.52;;;20.80;60.50;;;;;;4932342;28;20090;-82
2023/04/29 09:59:18;;;;;;;15.27;13.68;;;20.90;60.40;;;;;;4932630;28;20059;-81
2023/04/29 10:01:55;;;;;;;15.77;14.13;;;21.00;60.30;;;;;;4932751;28;20158;-82
2023/04/29 10:04:23;;;;;;;16.65;14.90;;;21.10;60.00;;;;;;4946463;28;20035;-80
2023/04/29 10:06:51;;;;;;;15.57;14.00;;;21.20;60.10;;;;;;4933771;28;20110;-81
2023/04/29 10:09:18;;;;;;;17.50;15.63;;;21.30;60.00;;;;;;4930815;28;20035;-80
2023/04/29 10:11:49;;;;;;;19.13;16.58;;;21.40;60.00;;;;;;4930495;28;20038;-79
2023/04/29 10:14:23;;;;;;;17.42;15.60;;;21.50;59.80;;;;;;4934626;28;20034;-80
2023/04/29 10:16:58;;;;;;;19.27;17.27;;;21.60;59.80;;;;;;4930516;28;20031;-81
2023/04/29 10:19:34;;;;;;;17.88;15.77;;;21.60;59.60;;;;;;4933499;28;20196;-79
2023/04/29 10:22:08;;;;;;;18.65;16.70;;;21.70;59.60;;;;;;4935054;28;20039;-80
2023/04/29 10:24:36;;;;;;;16.60;14.80;;;21.80;59.60;;;;;;4957700;28;20035;-78
2023/04/29 10:27:06;;;;;;;17.73;14.50;;;21.80;59.50;;;;;;4939048;28;20488;-80
2023/04/29 10:29:36;;;;;;;16.38;12.93;;;21.90;59.70;;;;;;4935452;28;20530;-79
2023/04/29 10:32:06;;;;;;;15.73;13.27;;;22.00;59.90;;;;;;4941286;28;20058;-79
2023/04/29 10:34:33;;;;;;;15.60;13.98;;;22.10;60.00;;;;;;4936432;28;20039;-80
2023/04/29 10:37:00;;;;;;;14.52;12.95;;;22.30;60.20;;;;;;4936789;28;20036;-79
2023/04/29 10:40:02;;;;;;;14.48;12.98;;;22.50;60.20;;;;;;4941448;28;20038;-79
2023/04/29 10:42:42;;;;;;;16.45;14.75;;;22.70;60.20;;;;;;4939675;28;20047;-81
2023/04/29 10:45:26;;;;;;;17.02;13.40;;;23.00;60.30;;;;;;4940371;28;20041;-82
2023/04/29 10:48:01;;;;;;;13.93;12.43;;;23.10;60.20;;;;;;4941973;28;20114;-84
2023/04/29 10:50:38;;;;;;;14.93;12.90;;;23.30;60.30;;;;;;4941618;28;20578;-81
2023/04/29 10:53:04;;;;;;;18.13;16.23;;;23.40;60.30;;;;;;4939503;28;20451;-82
2023/04/29 10:55:34;;;;;;;18.73;16.73;;;23.60;60.40;;;;;;4941781;28;20045;-83
2023/04/29 10:58:02;;;;;;;19.67;17.20;;;23.80;60.30;;;;;;4930708;28;20095;-79
2023/04/29 11:00:33;;;;;;;20.88;15.77;;;23.90;60.00;;;;;;4934510;28;20538;-81
2023/04/29 11:03:01;;;;;;;18.50;16.55;;;24.10;60.20;;;;;;4939267;28;20039;-80
2023/04/29 11:05:31;;;;;;;22.63;17.90;;;24.10;60.00;;;;;;4939649;28;20062;-80
2023/04/29 11:08:21;;;;;;;20.45;18.30;;;24.20;60.00;;;;;;4936026;28;20038;-79
2023/04/29 11:10:51;;;;;;;19.88;16.20;;;24.30;59.80;;;;;;4938019;28;20286;-81
2023/04/29 11:13:22;;;;;;;23.15;17.17;;;24.50;60.10;;;;;;4939707;28;20046;-81
2023/04/29 11:15:51;;;;;;;19.17;16.92;;;24.70;60.10;;;;;;4935472;28;20042;-82
2023/04/29 11:18:17;;;;;;;25.45;18.30;;;24.90;60.10;;;;;;4940515;28;20507;-83
2023/04/29 11:21:13;;;;;;;22.05;18.80;;;25.20;59.80;;;;;;4938364;28;20035;-84
2023/04/29 11:23:44;;;;;;;19.73;17.63;;;25.40;58.90;;;;;;4943457;28;20051;-85
2023/04/29 11:26:10;;;;;;;19.98;16.38;;;25.60;59.00;;;;;;4935947;28;20047;-84
2023/04/29 11:28:37;;;;;;;19.70;17.38;;;25.80;58.60;;;;;;4940132;28;20042;-82
2023/04/29 11:31:06;;;;;;;19.65;17.50;;;26.00;58.10;;;;;;4934841;28;20081;-80
2023/04/29 11:33:32;;;;;;;18.90;17.00;;;26.20;57.80;;;;;;4936784;28;20036;-81
2023/04/29 11:35:59;;;;;;;19.40;17.38;;;26.30;57.40;;;;;;4936436;28;20034;-77
2023/04/29 11:38:26;;;;;;;18.23;16.33;;;26.40;57.10;;;;;;4932116;28;20031;-79
2023/04/29 11:40:55;;;;;;;20.38;18.15;;;26.50;56.80;;;;;;4936702;28;20031;-78
2023/04/29 11:43:22;;;;;;;18.02;16.30;;;26.50;56.50;;;;;;4937712;28;20031;-79
2023/04/29 11:45:49;;;;;;;18.77;16.77;;;26.50;56.40;;;;;;4936240;28;20047;-79
2023/04/29 11:48:25;;;;;;;18.73;16.83;;;26.60;56.20;;;;;;4934593;28;20050;-79
2023/04/29 11:50:57;;;;;;;17.17;15.48;;;26.70;55.80;;;;;;4932376;28;20278;-78
2023/04/29 11:53:26;;;;;;;18.35;16.55;;;26.70;55.70;;;;;;4935693;28;20626;-79
2023/04/29 11:55:53;;;;;;;16.60;15.00;;;26.70;55.70;;;;;;4935599;28;20067;-80
2023/04/29 11:58:23;;;;;;;17.85;15.57;;;26.80;55.70;;;;;;4934007;28;20043;-80
2023/04/29 12:00:50;;;;;;;16.67;15.00;;;26.90;55.40;;;;;;4935110;28;20047;-80
2023/04/29 12:03:19;;;;;;;16.05;14.35;;;27.00;55.30;;;;;;4945035;28;20031;-80
2023/04/29 12:05:55;;;;;;;16.05;14.45;;;27.00;55.10;;;;;;4941559;28;20407;-79
2023/04/29 12:08:28;;;;;;;16.55;14.85;;;27.10;55.00;;;;;;4938731;28;20097;-79
2023/04/29 12:10:58;;;;;;;14.98;13.48;;;27.20;54.90;;;;;;4937802;28;20106;-80
2023/04/29 12:13:29;;;;;;;17.40;15.73;;;27.20;54.70;;;;;;4938216;28;20210;-82
2023/04/29 12:15:56;;;;;;;15.38;13.85;;;27.20;54.50;;;;;;4936435;28;20035;-82
2023/04/29 12:18:22;;;;;;;17.13;15.43;;;27.20;55.10;;;;;;4955744;28;20122;-82
2023/04/29 12:20:53;;;;;;;14.90;13.45;;;27.10;54.40;;;;;;4942023;28;20284;-82
2023/04/29 12:23:22;;;;;;;15.90;14.40;;;27.10;54.40;;;;;;4942472;28;20159;-81
2023/04/29 12:25:59;;;;;;;14.32;12.82;;;27.10;54.30;;;;;;4935769;28;20515;-82
2023/04/29 12:28:26;;;;;;;16.65;14.90;;;27.10;54.40;;;;;;4942781;28;20058;-81
2023/04/29 12:30:53;;;;;;;15.63;14.15;;;27.10;54.40;;;;;;4941482;28;20019;-80
2023/04/29 12:33:25;;;;;;;15.40;13.80;;;27.10;54.30;;;;;;4943362;28;20031;-79
2023/04/29 12:35:53;;;;;;;16.30;14.73;;;27.20;54.10;;;;;;4935442;28;20050;-81
2023/04/29 12:38:21;;;;;;;16.27;14.57;;;27.30;54.00;;;;;;4944371;28;20055;-80
2023/04/29 12:40:47;;;;;;;16.00;14.38;;;27.40;53.70;;;;;;4937370;28;20562;-81
2023/04/29 12:43:14;;;;;;;15.88;14.13;;;27.70;53.50;;;;;;4941771;28;20038;-80
2023/04/29 12:45:40;;;;;;;15.60;14.10;;;27.80;53.20;;;;;;4937971;28;20043;-82